No1 Tokuyama — JK5318 — position and weather

sailwx.info

Track history (hours):
 
Tides and Currents Weather Stations Pressure Air Temp Water Temp Dewpoint Dewpoint Depression Visibility Wind Speed Wind Dir Waves Ship Positions

No1 Tokuyama

Last reported at 2017-Mar-24 16:29 UTC. Time now 2017-Mar-25 07:54 UTC.
Position N 33°50' E 131°48'.

Length 110 m; draft 5.4 m.

Type: Cargo ship. MMSI: 431400487.

Date/timePositionNaut miles runAvg speedWind from/ knotsBaromVisibWave heightAir tempDewpointWater temp
2017-Mar-24 16:29N 33°50' E 131°48'7 0.2
2017-Mar-23 00:33N 33°50' E 131°56'1111.4
2017-Mar-22 23:33N 33°49' E 132°10'1413.8
2017-Mar-22 22:33N 33°51' E 132°26'1313.4
2017-Mar-22 21:34N 33°57' E 132°41'11212.1
2017-Mar-22 12:16N 34°34' E 134°49'912.8
2017-Mar-22 11:33N 34°38' E 134°59'1212.2
2017-Mar-22 10:33N 34°37' E 135°14'6 5.7
2017-Mar-22 09:33N 34°42' E 135°17'0 0.0
2017-Mar-22 08:16N 34°42' E 135°17'0 0.0
2017-Mar-22 07:34N 34°42' E 135°17'0 0.0
2017-Mar-22 06:34N 34°42' E 135°17'0 0.0
2017-Mar-22 05:33N 34°42' E 135°17'6 6.1
2017-Mar-22 04:34N 34°37' E 135°20'6 5.1
2017-Mar-22 03:28N 34°39' E 135°27'0 0.0
2017-Mar-22 02:22N 34°39' E 135°27'0 0.0
2017-Mar-22 01:22N 34°39' E 135°27'0 0.0
2017-Mar-22 00:28N 34°39' E 135°27'0 0.0
2017-Mar-21 23:28N 34°39' E 135°27'0 0.0
2017-Mar-21 22:28N 34°39' E 135°27'0 0.0
2017-Mar-21 21:28N 34°39' E 135°27'0 0.0
2017-Mar-21 20:16N 34°39' E 135°27'0 0.0
2017-Mar-21 19:28N 34°39' E 135°27'0 0.0
2017-Mar-21 18:28N 34°39' E 135°27'0 0.0
2017-Mar-21 17:16N 34°39' E 135°27'0 0.0
2017-Mar-21 16:28N 34°39' E 135°27'0 0.0
2017-Mar-21 15:16N 34°39' E 135°27'0 0.0
2017-Mar-21 14:28N 34°39' E 135°27'0 0.0
2017-Mar-21 13:28N 34°39' E 135°27'0 0.0
2017-Mar-21 12:28N 34°39' E 135°27'0 0.0
2017-Mar-21 11:28N 34°39' E 135°27'0 0.0
2017-Mar-21 10:28N 34°39' E 135°27'0 0.0
2017-Mar-21 09:28N 34°39' E 135°27'0 0.0
2017-Mar-21 08:28N 34°39' E 135°27'0 0.0
2017-Mar-21 07:28N 34°39' E 135°27'0 0.0
2017-Mar-21 06:33N 34°39' E 135°27'6 6.4
2017-Mar-21 05:33N 34°36' E 135°20'1212.2
2017-Mar-21 04:33N 34°35' E 135°05'12211.1
2017-Mar-20 17:33N 33°58' E 132°44'1212.1
2017-Mar-20 16:33N 33°52' E 132°31'1211.9
2017-Mar-20 15:33N 33°50' E 132°17'2110.2
2017-Mar-20 13:31N 33°52' E 131°52'  
Track history (hours):
 
Tides and Currents Weather Stations Pressure Air Temp Water Temp Dewpoint Dewpoint Depression Visibility Wind Speed Wind Dir Waves Ship Positions

No1 Tokuyama

Last reported at 2017-Mar-24 16:29 UTC. Time now 2017-Mar-25 07:54 UTC.
Position N 33°50' E 131°48'.

Length 110 m; draft 5.4 m.

Type: Cargo ship. MMSI: 431400487.

Date/timePositionNaut miles runAvg speedWind from/ knotsBaromVisibWave heightAir tempDewpointWater temp
2017-Mar-24 16:29N 33°50' E 131°48'7 0.2
2017-Mar-23 00:33N 33°50' E 131°56'1111.4
2017-Mar-22 23:33N 33°49' E 132°10'1413.8
2017-Mar-22 22:33N 33°51' E 132°26'1313.4
2017-Mar-22 21:34N 33°57' E 132°41'11212.1
2017-Mar-22 12:16N 34°34' E 134°49'912.8
2017-Mar-22 11:33N 34°38' E 134°59'1212.2
2017-Mar-22 10:33N 34°37' E 135°14'6 5.7
2017-Mar-22 09:33N 34°42' E 135°17'0 0.0
2017-Mar-22 08:16N 34°42' E 135°17'0 0.0
2017-Mar-22 07:34N 34°42' E 135°17'0 0.0
2017-Mar-22 06:34N 34°42' E 135°17'0 0.0
2017-Mar-22 05:33N 34°42' E 135°17'6 6.1
2017-Mar-22 04:34N 34°37' E 135°20'6 5.1
2017-Mar-22 03:28N 34°39' E 135°27'0 0.0
2017-Mar-22 02:22N 34°39' E 135°27'0 0.0
2017-Mar-22 01:22N 34°39' E 135°27'0 0.0
2017-Mar-22 00:28N 34°39' E 135°27'0 0.0
2017-Mar-21 23:28N 34°39' E 135°27'0 0.0
2017-Mar-21 22:28N 34°39' E 135°27'0 0.0
2017-Mar-21 21:28N 34°39' E 135°27'0 0.0
2017-Mar-21 20:16N 34°39' E 135°27'0 0.0
2017-Mar-21 19:28N 34°39' E 135°27'0 0.0
2017-Mar-21 18:28N 34°39' E 135°27'0 0.0
2017-Mar-21 17:16N 34°39' E 135°27'0 0.0
2017-Mar-21 16:28N 34°39' E 135°27'0 0.0
2017-Mar-21 15:16N 34°39' E 135°27'0 0.0
2017-Mar-21 14:28N 34°39' E 135°27'0 0.0
2017-Mar-21 13:28N 34°39' E 135°27'0 0.0
2017-Mar-21 12:28N 34°39' E 135°27'0 0.0
2017-Mar-21 11:28N 34°39' E 135°27'0 0.0
2017-Mar-21 10:28N 34°39' E 135°27'0 0.0
2017-Mar-21 09:28N 34°39' E 135°27'0 0.0
2017-Mar-21 08:28N 34°39' E 135°27'0 0.0
2017-Mar-21 07:28N 34°39' E 135°27'0 0.0
2017-Mar-21 06:33N 34°39' E 135°27'6 6.4
2017-Mar-21 05:33N 34°36' E 135°20'1212.2
2017-Mar-21 04:33N 34°35' E 135°05'12211.1
2017-Mar-20 17:33N 33°58' E 132°44'1212.1
2017-Mar-20 16:33N 33°52' E 132°31'1211.9
2017-Mar-20 15:33N 33°50' E 132°17'2110.2
2017-Mar-20 13:31N 33°52' E 131°52'  

Dump ship's entire track history